createdAt,value
2023-11-15T00:00:03.442Z,1009.18
2023-11-15T00:05:02.982Z,1009.29
2023-11-15T00:10:03.172Z,1009.36
2023-11-15T00:15:02.989Z,1009.38
2023-11-15T00:20:03.129Z,1009.42
2023-11-15T00:25:04.525Z,1009.54
2023-11-15T00:30:03.228Z,1009.54
2023-11-15T00:35:02.956Z,1009.51
2023-11-15T00:40:03.054Z,1009.56
2023-11-15T00:45:03.033Z,1009.55
2023-11-15T00:50:03.019Z,1009.49
2023-11-15T00:55:03.082Z,1009.53
2023-11-15T01:00:03.129Z,1009.57
2023-11-15T01:05:02.871Z,1009.5
2023-11-15T01:10:02.997Z,1009.48
2023-11-15T01:15:03.045Z,1009.5
2023-11-15T01:20:02.947Z,1009.52
2023-11-15T01:25:02.962Z,1009.53
2023-11-15T01:30:03.034Z,1009.57
2023-11-15T01:35:02.966Z,1009.48
2023-11-15T01:40:03.114Z,1009.35
2023-11-15T01:45:02.938Z,1009.35
2023-11-15T01:50:03.036Z,1009.44
2023-11-15T01:55:03.002Z,1009.42
2023-11-15T02:00:08.054Z,1009.47
2023-11-15T02:05:02.973Z,1009.36
2023-11-15T02:10:03.018Z,1009.41
2023-11-15T02:15:02.971Z,1009.32
2023-11-15T02:20:02.992Z,1009.34
2023-11-15T02:25:02.940Z,1009.27
2023-11-15T02:30:03.050Z,1009.2
2023-11-15T02:35:02.898Z,1009.12
2023-11-15T02:40:03.074Z,1009.23
2023-11-15T02:45:03.069Z,1009.25
2023-11-15T02:50:03.075Z,1009.08
2023-11-15T02:55:02.961Z,1008.99
2023-11-15T03:00:03.041Z,1008.86
2023-11-15T03:05:02.998Z,1008.99
2023-11-15T03:10:03.062Z,1009.01
2023-11-15T03:15:02.978Z,1009.0
2023-11-15T03:20:03.063Z,1008.79
2023-11-15T03:25:02.923Z,1008.56
2023-11-15T03:30:03.232Z,1008.2
2023-11-15T03:35:03.004Z,1007.78
2023-11-15T03:40:02.974Z,1007.42
2023-11-15T03:45:03.091Z,1007.72
2023-11-15T03:50:02.943Z,1007.76
2023-11-15T04:00:03.087Z,1007.71
2023-11-15T04:05:03.108Z,1007.71
2023-11-15T04:10:05.622Z,1007.75
2023-11-15T04:15:03.899Z,1007.65
2023-11-15T04:20:03.074Z,1007.45
2023-11-15T04:25:02.904Z,1007.5
2023-11-15T04:30:03.220Z,1007.38
2023-11-15T04:35:03.079Z,1007.37
2023-11-15T04:40:03.076Z,1007.5
2023-11-15T04:45:03.027Z,1007.5
2023-11-15T04:50:03.033Z,1007.53
2023-11-15T04:55:03.085Z,1007.52
2023-11-15T05:00:03.117Z,1007.55
2023-11-15T05:05:08.017Z,1007.56
2023-11-15T05:10:03.016Z,1007.49
2023-11-15T05:15:08.049Z,1007.34
2023-11-15T05:20:03.130Z,1007.23
2023-11-15T05:25:02.984Z,1007.13
2023-11-15T05:30:03.030Z,1007.11
2023-11-15T05:35:02.910Z,1007.05
2023-11-15T05:40:03.113Z,1006.99
2023-11-15T05:45:02.979Z,1006.96
2023-11-15T05:50:03.158Z,1006.86
2023-11-15T05:55:02.961Z,1006.77
2023-11-15T06:00:03.084Z,1006.7
2023-11-15T06:05:02.928Z,1006.71
2023-11-15T06:10:03.044Z,1006.69
2023-11-15T06:20:06.409Z,1006.46
2023-11-15T06:25:02.918Z,1006.42
2023-11-15T06:30:03.036Z,1006.32
2023-11-15T06:35:03.082Z,1006.21
2023-11-15T06:40:03.022Z,1006.13
2023-11-15T06:45:02.891Z,1006.07
2023-11-15T06:50:03.022Z,1005.96
2023-11-15T06:55:03.042Z,1005.86
2023-11-15T07:00:03.064Z,1005.83
2023-11-15T07:05:02.933Z,1005.78
2023-11-15T07:10:02.976Z,1005.68
2023-11-15T07:15:03.066Z,1005.48
2023-11-15T07:20:03.044Z,1005.53
2023-11-15T07:25:02.988Z,1005.53
2023-11-15T07:30:03.132Z,1005.51
2023-11-15T07:35:02.950Z,1005.59
2023-11-15T07:40:03.060Z,1005.54
2023-11-15T07:45:03.060Z,1005.54
2023-11-15T07:50:03.084Z,1005.51
2023-11-15T07:55:02.987Z,1005.4
2023-11-15T08:00:03.087Z,1005.41
2023-11-15T08:05:03.269Z,1005.41
2023-11-15T08:10:03.129Z,1005.61
2023-11-15T08:15:02.982Z,1005.75
2023-11-15T08:20:03.184Z,1005.83
2023-11-15T08:25:02.968Z,1005.83
2023-11-15T08:30:03.151Z,1005.9
2023-11-15T08:35:03.041Z,1005.94
2023-11-15T08:40:05.287Z,1006.08
2023-11-15T08:45:03.061Z,1006.1
2023-11-15T08:50:03.024Z,1006.4
2023-11-15T08:55:03.076Z,1006.36
2023-11-15T09:00:03.181Z,1006.5
2023-11-15T09:05:03.066Z,1006.46
2023-11-15T09:10:03.052Z,1006.5
2023-11-15T09:15:03.038Z,1006.58
2023-11-15T09:20:03.042Z,1006.73
2023-11-15T09:25:07.000Z,1006.83
2023-11-15T09:30:03.123Z,1006.84
2023-11-15T09:35:08.004Z,1006.9
2023-11-15T09:40:03.010Z,1007.05
2023-11-15T09:45:03.025Z,1007.17
2023-11-15T09:50:03.085Z,1007.24
2023-11-15T09:55:02.995Z,1007.28
2023-11-15T10:00:09.258Z,1007.38
2023-11-15T10:05:02.931Z,1007.56
2023-11-15T10:10:03.110Z,1007.48
2023-11-15T10:15:02.991Z,1007.48
2023-11-15T10:20:03.044Z,1007.54
2023-11-15T10:25:03.097Z,1007.45
2023-11-15T10:30:03.056Z,1007.33
2023-11-15T10:35:03.001Z,1007.26
2023-11-15T10:40:03.147Z,1007.42
2023-11-15T10:45:02.904Z,1007.48
2023-11-15T10:50:03.086Z,1007.55
2023-11-15T10:55:04.517Z,1007.79
2023-11-15T11:00:03.066Z,1007.98
2023-11-15T11:05:03.305Z,1008.07
2023-11-15T11:10:03.052Z,1008.18
2023-11-15T11:15:02.921Z,1008.27
2023-11-15T11:20:03.118Z,1008.29
2023-11-15T11:25:02.966Z,1008.38
2023-11-15T11:30:03.256Z,1008.36
2023-11-15T11:35:03.066Z,1008.29
2023-11-15T11:40:03.127Z,1008.2
2023-11-15T11:45:03.013Z,1008.29
2023-11-15T11:50:03.056Z,1008.44
2023-11-15T11:55:02.965Z,1008.54
2023-11-15T12:00:03.550Z,1008.62
2023-11-15T12:05:02.981Z,1008.81
2023-11-15T12:10:03.169Z,1008.99
2023-11-15T12:15:03.069Z,1009.12
2023-11-15T12:20:03.090Z,1009.24
2023-11-15T12:25:02.945Z,1009.22
2023-11-15T12:30:03.062Z,1009.31
2023-11-15T12:35:02.953Z,1009.43
2023-11-15T12:40:03.022Z,1009.43
2023-11-15T12:45:03.061Z,1009.41
2023-11-15T12:50:03.112Z,1009.33
2023-11-15T12:55:02.951Z,1009.26
2023-11-15T13:00:03.083Z,1009.33
2023-11-15T13:05:02.975Z,1009.23
2023-11-15T13:10:03.082Z,1009.16
2023-11-15T13:15:03.070Z,1008.93
2023-11-15T13:20:04.536Z,1008.91
2023-11-15T13:25:02.942Z,1008.82
2023-11-15T13:30:03.102Z,1008.75
2023-11-15T13:35:02.944Z,1008.68
2023-11-15T13:40:03.096Z,1008.64
2023-11-15T13:45:02.987Z,1008.56
2023-11-15T13:50:03.185Z,1008.56
2023-11-15T13:55:03.101Z,1008.6
2023-11-15T14:00:03.793Z,1008.66
2023-11-15T14:05:03.029Z,1008.66
2023-11-15T14:10:03.077Z,1008.62
2023-11-15T14:15:03.007Z,1008.61
2023-11-15T14:20:03.135Z,1008.54
2023-11-15T14:25:02.935Z,1008.44
2023-11-15T14:30:03.073Z,1008.33
2023-11-15T14:35:02.913Z,1008.32
2023-11-15T14:40:02.992Z,1008.23
2023-11-15T14:45:03.080Z,1008.11
2023-11-15T14:50:03.012Z,1008.02
2023-11-15T14:55:02.927Z,1008.03
2023-11-15T15:00:03.266Z,1007.99
2023-11-15T15:05:02.973Z,1008.01
2023-11-15T15:10:03.070Z,1007.85
2023-11-15T15:15:02.966Z,1007.73
2023-11-15T15:20:03.030Z,1007.7
2023-11-15T15:25:02.977Z,1007.6
2023-11-15T15:30:03.143Z,1007.57
2023-11-15T15:35:02.929Z,1007.51
2023-11-15T15:40:03.073Z,1007.51
2023-11-15T15:45:02.947Z,1007.43
2023-11-15T15:50:03.011Z,1007.31
2023-11-15T15:55:02.915Z,1007.26
2023-11-15T16:00:03.091Z,1007.23
2023-11-15T16:05:02.956Z,1007.25
2023-11-15T16:10:03.348Z,1007.22
2023-11-15T16:15:03.005Z,1007.15
2023-11-15T16:20:03.152Z,1007.1
2023-11-15T16:25:02.884Z,1006.99
2023-11-15T16:30:03.074Z,1006.84
2023-11-15T16:35:08.130Z,1006.76
2023-11-15T16:40:03.010Z,1006.76
2023-11-15T16:45:03.019Z,1006.64
2023-11-15T16:50:03.023Z,1006.52
2023-11-15T16:55:02.908Z,1006.47
2023-11-15T17:00:03.127Z,1006.39
2023-11-15T17:05:02.942Z,1006.25
2023-11-15T17:10:03.126Z,1006.25
2023-11-15T17:15:03.030Z,1006.08
2023-11-15T17:20:03.030Z,1006.06
2023-11-15T17:25:07.169Z,1006.05
2023-11-15T17:30:03.075Z,1005.82
2023-11-15T17:35:03.166Z,1005.84
2023-11-15T17:40:03.088Z,1005.76
2023-11-15T17:45:02.931Z,1005.68
2023-11-15T17:50:03.149Z,1005.67
2023-11-15T17:55:03.012Z,1005.59
2023-11-15T18:00:03.060Z,1005.56
2023-11-15T18:05:02.963Z,1005.44
2023-11-15T18:10:03.120Z,1005.41
2023-11-15T18:15:03.039Z,1005.27
2023-11-15T18:20:03.096Z,1005.18
2023-11-15T18:25:02.980Z,1005.14
2023-11-15T18:30:04.073Z,1005.05
2023-11-15T18:35:03.034Z,1004.94
2023-11-15T18:40:03.128Z,1004.82
2023-11-15T18:45:03.010Z,1004.68
2023-11-15T18:50:03.025Z,1004.67
2023-11-15T18:55:03.913Z,1004.65
2023-11-15T19:00:03.851Z,1004.61
2023-11-15T19:05:02.984Z,1004.58
2023-11-15T19:10:03.021Z,1004.45
2023-11-15T19:15:02.981Z,1004.41
2023-11-15T19:20:08.039Z,1004.47
2023-11-15T19:25:02.971Z,1004.48
2023-11-15T19:30:03.194Z,1004.38
2023-11-15T19:35:03.165Z,1004.34
2023-11-15T19:40:04.910Z,1004.31
2023-11-15T19:45:03.091Z,1004.24
2023-11-15T19:50:03.035Z,1004.2
2023-11-15T19:55:02.908Z,1004.19
2023-11-15T20:00:02.960Z,1004.23
2023-11-15T20:05:02.965Z,1004.17
2023-11-15T20:10:03.098Z,1004.03
2023-11-15T20:15:02.954Z,1003.98
2023-11-15T20:20:03.017Z,1003.99
2023-11-15T20:25:02.990Z,1003.89
2023-11-15T20:30:03.213Z,1003.83
2023-11-15T20:35:03.253Z,1003.83
2023-11-15T20:40:03.093Z,1003.79
2023-11-15T20:45:02.962Z,1003.7
2023-11-15T20:50:03.531Z,1003.67
2023-11-15T20:55:03.015Z,1003.58
2023-11-15T21:00:03.065Z,1003.43
2023-11-15T21:05:03.146Z,1003.45
2023-11-15T21:10:03.105Z,1003.44
2023-11-15T21:15:02.993Z,1003.4
2023-11-15T21:20:03.033Z,1003.5
2023-11-15T21:25:03.133Z,1003.54
2023-11-15T21:30:03.085Z,1003.47
2023-11-15T21:35:02.973Z,1003.45
2023-11-15T21:40:03.061Z,1003.4
2023-11-15T21:45:03.017Z,1003.37
2023-11-15T21:50:03.048Z,1003.28
2023-11-15T21:55:02.976Z,1003.35
2023-11-15T22:00:03.415Z,1003.37
2023-11-15T22:05:02.974Z,1003.37
2023-11-15T22:10:03.106Z,1003.39
2023-11-15T22:15:03.100Z,1003.5
2023-11-15T22:20:03.081Z,1003.54
2023-11-15T22:25:03.247Z,1003.7
2023-11-15T22:30:03.285Z,1003.74
2023-11-15T22:35:02.993Z,1003.92
2023-11-15T22:40:03.146Z,1003.98
2023-11-15T22:45:03.132Z,1004.09
2023-11-15T22:50:03.858Z,1004.23
2023-11-15T22:55:02.920Z,1004.18
2023-11-15T23:00:03.225Z,1004.14
2023-11-15T23:05:03.206Z,1004.25
2023-11-15T23:10:03.180Z,1004.41
2023-11-15T23:15:03.030Z,1004.5
2023-11-15T23:20:03.104Z,1004.43
2023-11-15T23:25:03.033Z,1004.43
2023-11-15T23:30:03.276Z,1004.39
2023-11-15T23:35:03.019Z,1004.43
2023-11-15T23:40:03.043Z,1004.5
2023-11-15T23:45:02.993Z,1004.41
2023-11-15T23:50:04.264Z,1004.28
2023-11-15T23:55:03.006Z,1004.11
